sensor_id;sensor_type;location;lat;lon;timestamp;pressure;altitude;pressure_sealevel;temperature;humidity
7748;BME280;3918;42.564;23.164;2023-09-19T04:02:22;-11650.84;;;-142.29;100.00
7748;BME280;3918;42.564;23.164;2023-09-19T04:04:49;-11650.84;;;-142.29;100.00
7748;BME280;3918;42.564;23.164;2023-09-19T04:07:16;-11650.84;;;-142.29;100.00
7748;BME280;3918;42.564;23.164;2023-09-19T04:09:43;-11650.84;;;-142.29;100.00
7748;BME280;3918;42.564;23.164;2023-09-19T04:12:09;-11650.84;;;-142.29;100.00
7748;BME280;3918;42.564;23.164;2023-09-19T04:14:36;-11650.84;;;-142.29;100.00
7748;BME280;3918;42.564;23.164;2023-09-19T04:17:03;-11650.84;;;-142.29;100.00
7748;BME280;3918;42.564;23.164;2023-09-19T04:19:31;-11650.84;;;-142.29;100.00
7748;BME280;3918;42.564;23.164;2023-09-19T04:21:59;-11650.84;;;-142.29;100.00
7748;BME280;3918;42.564;23.164;2023-09-19T04:24:25;-11650.84;;;-142.29;100.00
7748;BME280;3918;42.564;23.164;2023-09-19T04:26:52;-11650.84;;;-142.29;100.00
7748;BME280;3918;42.564;23.164;2023-09-19T04:29:19;-11650.84;;;-142.29;100.00
7748;BME280;3918;42.564;23.164;2023-09-19T04:31:46;-11650.84;;;-142.29;100.00
7748;BME280;3918;42.564;23.164;2023-09-19T04:34:13;-11650.84;;;-142.29;100.00
7748;BME280;3918;42.564;23.164;2023-09-19T04:36:42;-11650.84;;;-142.29;100.00
7748;BME280;3918;42.564;23.164;2023-09-19T04:39:09;-11650.84;;;-142.29;100.00
7748;BME280;3918;42.564;23.164;2023-09-19T04:41:38;-11650.84;;;-142.29;100.00
7748;BME280;3918;42.564;23.164;2023-09-19T04:44:07;-11650.84;;;-142.29;100.00
7748;BME280;3918;42.564;23.164;2023-09-19T04:46:34;-11650.84;;;-142.29;100.00
7748;BME280;3918;42.564;23.164;2023-09-19T04:49:01;-11650.84;;;-142.29;100.00
7748;BME280;3918;42.564;23.164;2023-09-19T04:51:27;-11650.84;;;-142.29;100.00
7748;BME280;3918;42.564;23.164;2023-09-19T04:54:01;-11650.84;;;-142.29;100.00
7748;BME280;3918;42.564;23.164;2023-09-19T04:56:28;-11650.84;;;-142.29;100.00
7748;BME280;3918;42.564;23.164;2023-09-19T04:58:56;-11650.84;;;-142.29;100.00
7748;BME280;3918;42.564;23.164;2023-09-19T05:01:23;-11650.84;;;-142.29;100.00
7748;BME280;3918;42.564;23.164;2023-09-19T05:03:49;-11650.84;;;-142.29;100.00
7748;BME280;3918;42.564;23.164;2023-09-19T05:06:17;-11650.84;;;-142.29;100.00
7748;BME280;3918;42.564;23.164;2023-09-19T05:08:45;-11650.84;;;-142.29;100.00
7748;BME280;3918;42.564;23.164;2023-09-19T05:11:14;-11650.84;;;-142.29;100.00
7748;BME280;3918;42.564;23.164;2023-09-19T05:13:40;-11650.84;;;-142.29;88.90
7748;BME280;3918;42.564;23.164;2023-09-19T05:16:08;-11650.84;;;-142.29;74.58
7748;BME280;3918;42.564;23.164;2023-09-19T05:18:35;-11650.84;;;-142.29;70.17
7748;BME280;3918;42.564;23.164;2023-09-19T05:21:02;-11650.84;;;-142.29;64.52
7748;BME280;3918;42.564;23.164;2023-09-19T05:23:29;-11650.84;;;-142.29;60.11
7748;BME280;3918;42.564;23.164;2023-09-19T05:25:57;-11650.84;;;-142.29;56.66
7748;BME280;3918;42.564;23.164;2023-09-19T05:28:26;-11650.84;;;-142.29;53.95
7748;BME280;3918;42.564;23.164;2023-09-19T05:30:53;-11650.84;;;-142.29;51.30
7748;BME280;3918;42.564;23.164;2023-09-19T05:33:20;-11650.84;;;-142.29;50.09
7748;BME280;3918;42.564;23.164;2023-09-19T05:35:48;-11650.84;;;-142.29;51.24
7748;BME280;3918;42.564;23.164;2023-09-19T05:38:15;-11650.84;;;-142.29;52.78
7748;BME280;3918;42.564;23.164;2023-09-19T05:40:45;-11650.84;;;-142.29;55.80
7748;BME280;3918;42.564;23.164;2023-09-19T05:43:11;-11650.84;;;-142.29;59.56
7748;BME280;3918;42.564;23.164;2023-09-19T05:45:41;-11650.84;;;-142.29;64.78
7748;BME280;3918;42.564;23.164;2023-09-19T05:48:09;-11650.84;;;-142.29;70.64
7748;BME280;3918;42.564;23.164;2023-09-19T05:50:36;-11650.84;;;-142.29;71.72
7748;BME280;3918;42.564;23.164;2023-09-19T05:53:03;-11650.84;;;-142.29;70.61
7748;BME280;3918;42.564;23.164;2023-09-19T05:55:31;-11650.84;;;-142.29;71.71
7748;BME280;3918;42.564;23.164;2023-09-19T05:57:58;-11650.84;;;-142.29;74.40
7748;BME280;3918;42.564;23.164;2023-09-19T06:00:25;-11650.84;;;-142.29;74.02
7748;BME280;3918;42.564;23.164;2023-09-19T06:02:55;-11650.84;;;-142.29;70.85
7748;BME280;3918;42.564;23.164;2023-09-19T06:05:23;-11650.84;;;-142.29;69.88
7748;BME280;3918;42.564;23.164;2023-09-19T06:07:52;-11650.84;;;-142.29;69.75
7748;BME280;3918;42.564;23.164;2023-09-19T06:10:19;-11650.84;;;-142.29;71.97
7748;BME280;3918;42.564;23.164;2023-09-19T06:12:48;-11650.84;;;-142.29;73.58
7748;BME280;3918;42.564;23.164;2023-09-19T06:15:15;-11650.84;;;-142.29;76.53
7748;BME280;3918;42.564;23.164;2023-09-19T06:17:47;-11650.84;;;-142.29;76.37
7748;BME280;3918;42.564;23.164;2023-09-19T06:20:15;-11650.84;;;-142.29;74.76
7748;BME280;3918;42.564;23.164;2023-09-19T06:22:44;-11650.84;;;-142.29;74.08
7748;BME280;3918;42.564;23.164;2023-09-19T06:25:12;-11650.84;;;-142.29;74.61
7748;BME280;3918;42.564;23.164;2023-09-19T06:27:42;-11650.84;;;-142.29;74.40
7748;BME280;3918;42.564;23.164;2023-09-19T06:30:10;-11650.84;;;-142.29;76.92
7748;BME280;3918;42.564;23.164;2023-09-19T06:32:38;-11650.84;;;-142.29;81.76
7748;BME280;3918;42.564;23.164;2023-09-19T06:35:06;-11650.84;;;-142.29;90.39
7748;BME280;3918;42.564;23.164;2023-09-19T06:37:35;-11650.84;;;-142.29;93.79
7748;BME280;3918;42.564;23.164;2023-09-19T06:40:06;-11650.84;;;-142.29;88.83
7748;BME280;3918;42.564;23.164;2023-09-19T06:42:34;-11650.84;;;-142.29;88.20
7748;BME280;3918;42.564;23.164;2023-09-19T06:45:03;-11650.84;;;-142.29;87.90
7748;BME280;3918;42.564;23.164;2023-09-19T06:47:30;-11650.84;;;-142.29;88.01
7748;BME280;3918;42.564;23.164;2023-09-19T06:49:57;-11650.84;;;-142.29;87.27
7748;BME280;3918;42.564;23.164;2023-09-19T06:52:24;-11650.84;;;-142.29;85.35
7748;BME280;3918;42.564;23.164;2023-09-19T06:54:52;-11650.84;;;-142.29;84.56
7748;BME280;3918;42.564;23.164;2023-09-19T06:57:19;-11650.84;;;-142.29;80.74
7748;BME280;3918;42.564;23.164;2023-09-19T06:59:46;-11650.84;;;-142.29;80.18
7748;BME280;3918;42.564;23.164;2023-09-19T07:02:13;-11650.84;;;-142.29;80.96
7748;BME280;3918;42.564;23.164;2023-09-19T07:04:40;-11650.84;;;-142.29;80.28
7748;BME280;3918;42.564;23.164;2023-09-19T07:07:07;-11650.84;;;-142.29;79.13
7748;BME280;3918;42.564;23.164;2023-09-19T07:09:34;-11650.84;;;-142.29;80.53
7748;BME280;3918;42.564;23.164;2023-09-19T07:12:02;-11650.84;;;-142.29;82.34
7748;BME280;3918;42.564;23.164;2023-09-19T07:14:29;-11650.84;;;-142.29;82.11
7748;BME280;3918;42.564;23.164;2023-09-19T07:16:56;-11650.84;;;-142.29;81.27
7748;BME280;3918;42.564;23.164;2023-09-19T07:19:25;-11650.84;;;-142.29;82.61
7748;BME280;3918;42.564;23.164;2023-09-19T07:21:54;-11650.84;;;-142.29;85.14
7748;BME280;3918;42.564;23.164;2023-09-19T07:24:20;-11650.84;;;-142.29;87.50
7748;BME280;3918;42.564;23.164;2023-09-19T07:26:49;-11650.84;;;-142.29;85.77
7748;BME280;3918;42.564;23.164;2023-09-19T07:29:17;-11650.84;;;-142.29;82.32
7748;BME280;3918;42.564;23.164;2023-09-19T07:31:44;-11650.84;;;-142.29;82.24
7748;BME280;3918;42.564;23.164;2023-09-19T07:34:12;-11650.84;;;-142.29;81.37
7748;BME280;3918;42.564;23.164;2023-09-19T07:36:39;-11650.84;;;-142.29;79.57
7748;BME280;3918;42.564;23.164;2023-09-19T07:39:07;-11650.84;;;-142.29;79.68
7748;BME280;3918;42.564;23.164;2023-09-19T07:41:34;-11650.84;;;-142.29;80.21
7748;BME280;3918;42.564;23.164;2023-09-19T07:44:00;-11650.84;;;-142.29;82.18
7748;BME280;3918;42.564;23.164;2023-09-19T07:46:29;-11650.84;;;-142.29;82.47
7748;BME280;3918;42.564;23.164;2023-09-19T07:48:56;-11650.84;;;-142.29;83.32
7748;BME280;3918;42.564;23.164;2023-09-19T07:51:23;-11650.84;;;-142.29;80.73
7748;BME280;3918;42.564;23.164;2023-09-19T07:53:50;-11650.84;;;-142.29;81.48
7748;BME280;3918;42.564;23.164;2023-09-19T07:56:18;-11650.84;;;-142.29;80.37
7748;BME280;3918;42.564;23.164;2023-09-19T07:58:45;-11650.84;;;-142.29;82.57
7748;BME280;3918;42.564;23.164;2023-09-19T08:01:12;-11650.84;;;-142.29;82.81
7748;BME280;3918;42.564;23.164;2023-09-19T08:03:42;-11650.84;;;-142.29;80.68
7748;BME280;3918;42.564;23.164;2023-09-19T08:06:10;-11650.84;;;-142.29;77.72
7748;BME280;3918;42.564;23.164;2023-09-19T08:08:39;-11650.84;;;-142.29;77.44
7748;BME280;3918;42.564;23.164;2023-09-19T08:11:06;-11650.84;;;-142.29;76.21
7748;BME280;3918;42.564;23.164;2023-09-19T08:13:37;-11650.84;;;-142.29;74.81
7748;BME280;3918;42.564;23.164;2023-09-19T08:16:06;-11650.84;;;-142.29;76.21
7748;BME280;3918;42.564;23.164;2023-09-19T08:18:33;-11650.84;;;-142.29;72.86
7748;BME280;3918;42.564;23.164;2023-09-19T08:21:01;-11650.84;;;-142.29;71.07
7748;BME280;3918;42.564;23.164;2023-09-19T08:23:28;-11650.84;;;-142.29;71.05
7748;BME280;3918;42.564;23.164;2023-09-19T08:25:57;-11650.84;;;-142.29;69.04
7748;BME280;3918;42.564;23.164;2023-09-19T08:28:28;-11650.84;;;-142.29;67.71
7748;BME280;3918;42.564;23.164;2023-09-19T08:30:55;-11650.84;;;-142.29;68.91
7748;BME280;3918;42.564;23.164;2023-09-19T08:33:23;-11650.84;;;-142.29;69.48
7748;BME280;3918;42.564;23.164;2023-09-19T08:35:50;-11650.84;;;-142.29;70.50
7748;BME280;3918;42.564;23.164;2023-09-19T08:38:18;-11650.84;;;-142.29;72.97
7748;BME280;3918;42.564;23.164;2023-09-19T08:40:45;-11650.84;;;-142.29;73.31
7748;BME280;3918;42.564;23.164;2023-09-19T08:43:12;-11650.84;;;-142.29;76.13
7748;BME280;3918;42.564;23.164;2023-09-19T08:45:39;-11650.84;;;-142.29;77.84
7748;BME280;3918;42.564;23.164;2023-09-19T08:48:17;-11650.84;;;-142.29;76.67
7748;BME280;3918;42.564;23.164;2023-09-19T08:50:49;-11650.84;;;-142.29;79.04
7748;BME280;3918;42.564;23.164;2023-09-19T08:53:26;-11650.84;;;-142.29;78.50
7748;BME280;3918;42.564;23.164;2023-09-19T08:55:55;-11650.84;;;-142.29;76.83
7748;BME280;3918;42.564;23.164;2023-09-19T08:58:26;-11650.84;;;-142.29;76.87
7748;BME280;3918;42.564;23.164;2023-09-19T09:00:55;-11650.84;;;-142.29;76.77
7748;BME280;3918;42.564;23.164;2023-09-19T09:03:23;-11650.84;;;-142.29;74.77
7748;BME280;3918;42.564;23.164;2023-09-19T09:05:51;-11650.84;;;-142.29;76.22
7748;BME280;3918;42.564;23.164;2023-09-19T09:08:20;-11650.84;;;-142.29;74.92
7748;BME280;3918;42.564;23.164;2023-09-19T09:10:48;-11650.84;;;-142.29;76.76
7748;BME280;3918;42.564;23.164;2023-09-19T09:13:16;-11650.84;;;-142.29;73.12
7748;BME280;3918;42.564;23.164;2023-09-19T09:15:44;-11650.84;;;-142.29;73.15
7748;BME280;3918;42.564;23.164;2023-09-19T09:18:11;-11650.84;;;-142.29;72.50
7748;BME280;3918;42.564;23.164;2023-09-19T09:20:39;-11650.84;;;-142.29;71.26
7748;BME280;3918;42.564;23.164;2023-09-19T09:23:06;-11650.84;;;-142.29;75.57
7748;BME280;3918;42.564;23.164;2023-09-19T09:25:51;-11650.84;;;-142.29;75.92
7748;BME280;3918;42.564;23.164;2023-09-19T09:28:23;-11650.84;;;-142.29;76.44
7748;BME280;3918;42.564;23.164;2023-09-19T09:30:50;-11650.84;;;-142.29;76.21
7748;BME280;3918;42.564;23.164;2023-09-19T09:33:17;-11650.84;;;-142.29;77.36
7748;BME280;3918;42.564;23.164;2023-09-19T09:35:48;-11650.84;;;-142.29;76.17
7748;BME280;3918;42.564;23.164;2023-09-19T09:38:18;-11650.84;;;-142.29;75.19
7748;BME280;3918;42.564;23.164;2023-09-19T09:40:49;-11650.84;;;-142.29;79.48
7748;BME280;3918;42.564;23.164;2023-09-19T09:43:30;-11650.84;;;-142.29;79.17
7748;BME280;3918;42.564;23.164;2023-09-19T09:46:21;-11650.84;;;-142.29;76.47
7748;BME280;3918;42.564;23.164;2023-09-19T09:49:05;-11650.84;;;-142.29;77.04
7748;BME280;3918;42.564;23.164;2023-09-19T09:51:42;-11650.84;;;-142.29;76.28
7748;BME280;3918;42.564;23.164;2023-09-19T09:54:14;-11650.84;;;-142.29;75.06
7748;BME280;3918;42.564;23.164;2023-09-19T09:56:52;-11650.84;;;-142.29;73.35
7748;BME280;3918;42.564;23.164;2023-09-19T09:59:21;-11650.84;;;-142.29;72.94
7748;BME280;3918;42.564;23.164;2023-09-19T10:01:49;-11650.84;;;-142.29;73.26
7748;BME280;3918;42.564;23.164;2023-09-19T10:04:27;-11650.84;;;-142.29;73.82
7748;BME280;3918;42.564;23.164;2023-09-19T10:07:01;-11650.84;;;-142.29;73.16
7748;BME280;3918;42.564;23.164;2023-09-19T10:09:44;-11650.84;;;-142.29;72.24
7748;BME280;3918;42.564;23.164;2023-09-19T10:12:12;-11650.84;;;-142.29;71.93
7748;BME280;3918;42.564;23.164;2023-09-19T10:14:44;-11650.84;;;-142.29;73.52
7748;BME280;3918;42.564;23.164;2023-09-19T10:17:13;-11650.84;;;-142.29;72.62
7748;BME280;3918;42.564;23.164;2023-09-19T10:19:45;-11650.84;;;-142.29;73.15
7748;BME280;3918;42.564;23.164;2023-09-19T10:22:14;-11650.84;;;-142.29;72.18
7748;BME280;3918;42.564;23.164;2023-09-19T10:24:43;-11650.84;;;-142.29;70.86
7748;BME280;3918;42.564;23.164;2023-09-19T10:27:12;-11650.84;;;-142.29;69.25
7748;BME280;3918;42.564;23.164;2023-09-19T10:29:44;-11650.84;;;-142.29;68.33
7748;BME280;3918;42.564;23.164;2023-09-19T10:32:15;-11650.84;;;-142.29;69.04
7748;BME280;3918;42.564;23.164;2023-09-19T10:34:46;-11650.84;;;-142.29;71.00
7748;BME280;3918;42.564;23.164;2023-09-19T10:37:16;-11650.84;;;-142.29;70.03
7748;BME280;3918;42.564;23.164;2023-09-19T10:39:45;-11650.84;;;-142.29;70.85
7748;BME280;3918;42.564;23.164;2023-09-19T10:42:15;-11650.84;;;-142.29;72.05
7748;BME280;3918;42.564;23.164;2023-09-19T10:44:47;-11650.84;;;-142.29;70.69
7748;BME280;3918;42.564;23.164;2023-09-19T10:47:19;-11650.84;;;-142.29;69.36
7748;BME280;3918;42.564;23.164;2023-09-19T10:49:46;-11650.84;;;-142.29;69.51
7748;BME280;3918;42.564;23.164;2023-09-19T10:52:14;-11650.84;;;-142.29;68.27
7748;BME280;3918;42.564;23.164;2023-09-19T10:54:46;-11650.84;;;-142.29;69.81
7748;BME280;3918;42.564;23.164;2023-09-19T10:57:19;-11650.84;;;-142.29;69.07
7748;BME280;3918;42.564;23.164;2023-09-19T11:00:03;-11650.84;;;-142.29;68.38
7748;BME280;3918;42.564;23.164;2023-09-19T11:03:16;-11650.84;;;-142.29;71.55
7748;BME280;3918;42.564;23.164;2023-09-19T11:06:00;-11650.84;;;-142.29;70.27
7748;BME280;3918;42.564;23.164;2023-09-19T11:08:31;-11650.84;;;-142.29;69.90
7748;BME280;3918;42.564;23.164;2023-09-19T11:11:00;-11650.84;;;-142.29;70.30
7748;BME280;3918;42.564;23.164;2023-09-19T11:13:29;-11650.84;;;-142.29;68.39
7748;BME280;3918;42.564;23.164;2023-09-19T11:16:05;-11650.84;;;-142.29;69.12
7748;BME280;3918;42.564;23.164;2023-09-19T11:18:52;-11650.84;;;-142.29;68.06
7748;BME280;3918;42.564;23.164;2023-09-19T11:24:30;-11650.84;;;-142.29;70.40
7748;BME280;3918;42.564;23.164;2023-09-19T11:27:17;-11650.84;;;-142.29;71.79
7748;BME280;3918;42.564;23.164;2023-09-19T11:29:45;-11650.84;;;-142.29;70.43
7748;BME280;3918;42.564;23.164;2023-09-19T11:32:15;-11650.84;;;-142.29;72.13
7748;BME280;3918;42.564;23.164;2023-09-19T11:34:46;-11650.84;;;-142.29;72.34
7748;BME280;3918;42.564;23.164;2023-09-19T11:40:47;-11650.84;;;-142.29;68.97
7748;BME280;3918;42.564;23.164;2023-09-19T11:43:34;-11650.84;;;-142.29;71.83
7748;BME280;3918;42.564;23.164;2023-09-19T11:46:05;-11650.84;;;-142.29;71.46
7748;BME280;3918;42.564;23.164;2023-09-19T11:48:34;-11650.84;;;-142.29;72.21
7748;BME280;3918;42.564;23.164;2023-09-19T11:51:17;-11650.84;;;-142.29;70.95
7748;BME280;3918;42.564;23.164;2023-09-19T11:53:52;-11650.84;;;-142.29;70.26
7748;BME280;3918;42.564;23.164;2023-09-19T11:56:20;-11650.84;;;-142.29;69.88
7748;BME280;3918;42.564;23.164;2023-09-19T11:58:50;-11650.84;;;-142.29;71.21
7748;BME280;3918;42.564;23.164;2023-09-19T12:01:23;-11650.84;;;-142.29;71.28
7748;BME280;3918;42.564;23.164;2023-09-19T12:03:55;-11650.84;;;-142.29;69.94
7748;BME280;3918;42.564;23.164;2023-09-19T12:06:24;-11650.84;;;-142.29;69.22
7748;BME280;3918;42.564;23.164;2023-09-19T12:08:51;-11650.84;;;-142.29;68.39
7748;BME280;3918;42.564;23.164;2023-09-19T12:11:19;-11650.84;;;-142.29;67.46
7748;BME280;3918;42.564;23.164;2023-09-19T12:13:48;-11650.84;;;-142.29;67.16
7748;BME280;3918;42.564;23.164;2023-09-19T12:16:17;-11650.84;;;-142.29;68.46
7748;BME280;3918;42.564;23.164;2023-09-19T12:18:47;-11650.84;;;-142.29;68.53
7748;BME280;3918;42.564;23.164;2023-09-19T12:21:27;-11650.84;;;-142.29;70.89
7748;BME280;3918;42.564;23.164;2023-09-19T12:24:04;-11650.84;;;-142.29;70.80
7748;BME280;3918;42.564;23.164;2023-09-19T12:26:38;-11650.84;;;-142.29;68.55
7748;BME280;3918;42.564;23.164;2023-09-19T12:29:11;-11650.84;;;-142.29;68.86
7748;BME280;3918;42.564;23.164;2023-09-19T12:31:50;-11650.84;;;-142.29;69.83
7748;BME280;3918;42.564;23.164;2023-09-19T12:34:20;-11650.84;;;-142.29;69.56
7748;BME280;3918;42.564;23.164;2023-09-19T12:36:49;-11650.84;;;-142.29;69.14
7748;BME280;3918;42.564;23.164;2023-09-19T12:39:23;-11650.84;;;-142.29;70.26
7748;BME280;3918;42.564;23.164;2023-09-19T12:41:51;-11650.84;;;-142.29;70.58
7748;BME280;3918;42.564;23.164;2023-09-19T12:44:19;-11650.84;;;-142.29;70.75
7748;BME280;3918;42.564;23.164;2023-09-19T12:46:46;-11650.84;;;-142.29;69.56
7748;BME280;3918;42.564;23.164;2023-09-19T12:49:17;-11650.84;;;-142.29;69.76
7748;BME280;3918;42.564;23.164;2023-09-19T12:51:46;-11650.84;;;-142.29;70.06
7748;BME280;3918;42.564;23.164;2023-09-19T12:54:14;-11650.84;;;-142.29;70.76
7748;BME280;3918;42.564;23.164;2023-09-19T12:56:43;-11650.84;;;-142.29;70.96
7748;BME280;3918;42.564;23.164;2023-09-19T12:59:12;-11650.84;;;-142.29;71.36
7748;BME280;3918;42.564;23.164;2023-09-19T13:01:40;-11650.84;;;-142.29;71.46
7748;BME280;3918;42.564;23.164;2023-09-19T13:04:16;-11650.84;;;-142.29;71.60
7748;BME280;3918;42.564;23.164;2023-09-19T13:06:45;-11650.84;;;-142.29;70.83
7748;BME280;3918;42.564;23.164;2023-09-19T13:09:15;-11650.84;;;-142.29;70.27
7748;BME280;3918;42.564;23.164;2023-09-19T13:11:43;-11650.84;;;-142.29;70.72
7748;BME280;3918;42.564;23.164;2023-09-19T13:14:16;-11650.84;;;-142.29;71.23
7748;BME280;3918;42.564;23.164;2023-09-19T13:16:56;-11650.84;;;-142.29;70.47
7748;BME280;3918;42.564;23.164;2023-09-19T13:19:37;-11650.84;;;-142.29;70.54
7748;BME280;3918;42.564;23.164;2023-09-19T13:22:05;-11650.84;;;-142.29;70.08
7748;BME280;3918;42.564;23.164;2023-09-19T13:24:35;-11650.84;;;-142.29;69.82
7748;BME280;3918;42.564;23.164;2023-09-19T13:27:05;-11650.84;;;-142.29;69.88
7748;BME280;3918;42.564;23.164;2023-09-19T13:29:32;-11650.84;;;-142.29;68.45
7748;BME280;3918;42.564;23.164;2023-09-19T13:31:59;-11650.84;;;-142.29;69.66
7748;BME280;3918;42.564;23.164;2023-09-19T13:34:27;-11650.84;;;-142.29;68.43
7748;BME280;3918;42.564;23.164;2023-09-19T13:36:54;-11650.84;;;-142.29;68.52
7748;BME280;3918;42.564;23.164;2023-09-19T13:39:21;-11650.84;;;-142.29;69.47
7748;BME280;3918;42.564;23.164;2023-09-19T13:41:51;-11650.84;;;-142.29;69.24
7748;BME280;3918;42.564;23.164;2023-09-19T13:44:18;-11650.84;;;-142.29;67.20
7748;BME280;3918;42.564;23.164;2023-09-19T13:46:45;-11650.84;;;-142.29;67.23
7748;BME280;3918;42.564;23.164;2023-09-19T13:49:12;-11650.84;;;-142.29;67.35
7748;BME280;3918;42.564;23.164;2023-09-19T13:51:38;-11650.84;;;-142.29;66.87
7748;BME280;3918;42.564;23.164;2023-09-19T13:54:08;-11650.84;;;-142.29;66.95
7748;BME280;3918;42.564;23.164;2023-09-19T13:56:37;-11650.84;;;-142.29;67.20
7748;BME280;3918;42.564;23.164;2023-09-19T13:59:05;-11650.84;;;-142.29;67.81
7748;BME280;3918;42.564;23.164;2023-09-19T14:01:32;-11650.84;;;-142.29;67.24
7748;BME280;3918;42.564;23.164;2023-09-19T14:03:59;-11650.84;;;-142.29;67.15
7748;BME280;3918;42.564;23.164;2023-09-19T14:06:26;-11650.84;;;-142.29;67.21
7748;BME280;3918;42.564;23.164;2023-09-19T14:08:52;-11650.84;;;-142.29;67.17
7748;BME280;3918;42.564;23.164;2023-09-19T14:11:19;-11650.84;;;-142.29;67.20
7748;BME280;3918;42.564;23.164;2023-09-19T14:13:46;-11650.84;;;-142.29;67.02
7748;BME280;3918;42.564;23.164;2023-09-19T14:16:16;-11650.84;;;-142.29;67.96
7748;BME280;3918;42.564;23.164;2023-09-19T14:18:44;-11650.84;;;-142.29;67.74
7748;BME280;3918;42.564;23.164;2023-09-19T14:21:11;-11650.84;;;-142.29;68.22
7748;BME280;3918;42.564;23.164;2023-09-19T14:23:38;-11650.84;;;-142.29;68.52
7748;BME280;3918;42.564;23.164;2023-09-19T14:26:05;-11650.84;;;-142.29;68.07
7748;BME280;3918;42.564;23.164;2023-09-19T14:28:32;-11650.84;;;-142.29;69.28
7748;BME280;3918;42.564;23.164;2023-09-19T14:31:04;-11650.84;;;-142.29;68.87
7748;BME280;3918;42.564;23.164;2023-09-19T14:33:32;-11650.84;;;-142.29;68.83
7748;BME280;3918;42.564;23.164;2023-09-19T14:36:02;-11650.84;;;-142.29;68.99
7748;BME280;3918;42.564;23.164;2023-09-19T14:38:30;-11650.84;;;-142.29;70.03
7748;BME280;3918;42.564;23.164;2023-09-19T14:40:59;-11650.84;;;-142.29;71.38
7748;BME280;3918;42.564;23.164;2023-09-19T14:43:26;-11650.84;;;-142.29;70.56
7748;BME280;3918;42.564;23.164;2023-09-19T14:45:54;-11650.84;;;-142.29;71.62
7748;BME280;3918;42.564;23.164;2023-09-19T14:48:22;-11650.84;;;-142.29;72.34
7748;BME280;3918;42.564;23.164;2023-09-19T14:50:52;-11650.84;;;-142.29;72.90
7748;BME280;3918;42.564;23.164;2023-09-19T14:53:20;-11650.84;;;-142.29;72.87
7748;BME280;3918;42.564;23.164;2023-09-19T14:55:47;-11650.84;;;-142.29;72.64
7748;BME280;3918;42.564;23.164;2023-09-19T14:58:17;-11650.84;;;-142.29;73.08
7748;BME280;3918;42.564;23.164;2023-09-19T15:00:44;-11650.84;;;-142.29;73.36
7748;BME280;3918;42.564;23.164;2023-09-19T15:03:11;-11650.84;;;-142.29;73.63
7748;BME280;3918;42.564;23.164;2023-09-19T15:05:38;-11650.84;;;-142.29;73.39
7748;BME280;3918;42.564;23.164;2023-09-19T15:08:07;-11650.84;;;-142.29;73.26
7748;BME280;3918;42.564;23.164;2023-09-19T15:10:34;-11650.84;;;-142.29;72.37
7748;BME280;3918;42.564;23.164;2023-09-19T15:13:00;-11650.84;;;-142.29;72.74
7748;BME280;3918;42.564;23.164;2023-09-19T15:15:27;-11650.84;;;-142.29;72.79
7748;BME280;3918;42.564;23.164;2023-09-19T15:17:54;-11650.84;;;-142.29;72.13
7748;BME280;3918;42.564;23.164;2023-09-19T15:20:20;-11650.84;;;-142.29;72.48
7748;BME280;3918;42.564;23.164;2023-09-19T15:22:47;-11650.84;;;-142.29;73.10
7748;BME280;3918;42.564;23.164;2023-09-19T15:25:16;-11650.84;;;-142.29;73.44
7748;BME280;3918;42.564;23.164;2023-09-19T15:27:43;-11650.84;;;-142.29;74.76
7748;BME280;3918;42.564;23.164;2023-09-19T15:30:11;-11650.84;;;-142.29;75.61
7748;BME280;3918;42.564;23.164;2023-09-19T15:32:40;-11650.84;;;-142.29;75.43
7748;BME280;3918;42.564;23.164;2023-09-19T15:35:08;-11650.84;;;-142.29;75.56
7748;BME280;3918;42.564;23.164;2023-09-19T15:37:37;-11650.84;;;-142.29;75.18
7748;BME280;3918;42.564;23.164;2023-09-19T15:40:04;-11650.84;;;-142.29;74.27
7748;BME280;3918;42.564;23.164;2023-09-19T15:42:35;-11650.84;;;-142.29;75.43
7748;BME280;3918;42.564;23.164;2023-09-19T15:45:02;-11650.84;;;-142.29;75.57
7748;BME280;3918;42.564;23.164;2023-09-19T15:47:29;-11650.84;;;-142.29;76.52
7748;BME280;3918;42.564;23.164;2023-09-19T15:49:56;-11650.84;;;-142.29;77.99
7748;BME280;3918;42.564;23.164;2023-09-19T15:52:23;-11650.84;;;-142.29;79.04
7748;BME280;3918;42.564;23.164;2023-09-19T15:54:51;-11650.84;;;-142.29;79.45
7748;BME280;3918;42.564;23.164;2023-09-19T15:57:18;-11650.84;;;-142.29;79.95
7748;BME280;3918;42.564;23.164;2023-09-19T15:59:46;-11650.84;;;-142.29;80.09
7748;BME280;3918;42.564;23.164;2023-09-19T16:02:14;-11650.84;;;-142.29;80.35
7748;BME280;3918;42.564;23.164;2023-09-19T16:04:42;-11650.84;;;-142.29;80.80
7748;BME280;3918;42.564;23.164;2023-09-19T16:07:10;-11650.84;;;-142.29;81.34
7748;BME280;3918;42.564;23.164;2023-09-19T16:09:37;-11650.84;;;-142.29;82.24
7748;BME280;3918;42.564;23.164;2023-09-19T16:12:05;-11650.84;;;-142.29;83.21
7748;BME280;3918;42.564;23.164;2023-09-19T16:14:32;-11650.84;;;-142.29;82.86
7748;BME280;3918;42.564;23.164;2023-09-19T16:17:00;-11650.84;;;-142.29;87.50
7748;BME280;3918;42.564;23.164;2023-09-19T16:19:27;-11650.84;;;-142.29;93.38
7748;BME280;3918;42.564;23.164;2023-09-19T16:21:54;-11650.84;;;-142.29;95.71
7748;BME280;3918;42.564;23.164;2023-09-19T16:24:26;-11650.84;;;-142.29;98.61
7748;BME280;3918;42.564;23.164;2023-09-19T16:26:55;-11650.84;;;-142.29;100.00
7748;BME280;3918;42.564;23.164;2023-09-19T16:29:22;-11650.84;;;-142.29;100.00
7748;BME280;3918;42.564;23.164;2023-09-19T16:31:49;-11650.84;;;-142.29;100.00
7748;BME280;3918;42.564;23.164;2023-09-19T16:34:21;-11650.84;;;-142.29;100.00
7748;BME280;3918;42.564;23.164;2023-09-19T16:36:48;-11650.84;;;-142.29;100.00
7748;BME280;3918;42.564;23.164;2023-09-19T16:39:16;-11650.84;;;-142.29;100.00
7748;BME280;3918;42.564;23.164;2023-09-19T16:41:44;-11650.84;;;-142.29;100.00
7748;BME280;3918;42.564;23.164;2023-09-19T16:44:11;-11650.84;;;-142.29;100.00
7748;BME280;3918;42.564;23.164;2023-09-19T16:46:38;-11650.84;;;-142.29;100.00
7748;BME280;3918;42.564;23.164;2023-09-19T16:49:05;-11650.84;;;-142.29;100.00
7748;BME280;3918;42.564;23.164;2023-09-19T16:51:33;-11650.84;;;-142.29;100.00
7748;BME280;3918;42.564;23.164;2023-09-19T16:54:00;-11650.84;;;-142.29;100.00
7748;BME280;3918;42.564;23.164;2023-09-19T16:56:28;-11650.84;;;-142.29;100.00